createdAt,value
2018-09-11T00:01:01.764Z,15.30
2018-09-11T00:03:30.148Z,15.40
2018-09-11T00:05:58.542Z,15.40
2018-09-11T00:08:26.944Z,15.40
2018-09-11T00:10:55.352Z,15.50
2018-09-11T00:13:23.769Z,15.40
2018-09-11T00:15:52.211Z,15.40
2018-09-11T00:18:20.637Z,15.40
2018-09-11T00:20:49.066Z,15.40
2018-09-11T00:23:17.469Z,15.30
2018-09-11T00:25:45.852Z,15.30
2018-09-11T00:28:14.257Z,15.30
2018-09-11T00:30:42.662Z,15.30
2018-09-11T00:33:11.081Z,15.20
2018-09-11T00:35:39.485Z,15.30
2018-09-11T00:38:08.203Z,15.20
2018-09-11T00:40:36.612Z,15.20
2018-09-11T00:43:05.029Z,15.20
2018-09-11T00:45:33.408Z,15.20
2018-09-11T00:48:01.825Z,15.20
2018-09-11T00:50:30.197Z,15.10
2018-09-11T00:52:58.610Z,15.00
2018-09-11T00:55:26.988Z,14.90
2018-09-11T00:57:55.388Z,14.90
2018-09-11T01:00:23.789Z,14.90
2018-09-11T01:02:52.192Z,14.90
2018-09-11T01:05:20.598Z,15.00
2018-09-11T01:07:49.001Z,15.10
2018-09-11T01:10:17.490Z,15.10
2018-09-11T01:12:45.920Z,15.10
2018-09-11T01:15:14.324Z,15.10
2018-09-11T01:17:42.721Z,15.10
2018-09-11T01:20:11.113Z,15.10
2018-09-11T01:22:39.497Z,15.10
2018-09-11T01:25:07.912Z,15.20
2018-09-11T01:27:37.004Z,15.20
2018-09-11T01:30:06.608Z,15.20
2018-09-11T01:32:34.980Z,15.20
2018-09-11T01:35:03.449Z,15.20
2018-09-11T01:37:31.826Z,15.20
2018-09-11T01:40:00.231Z,15.30
2018-09-11T01:42:28.605Z,15.30
2018-09-11T01:44:56.996Z,15.30
2018-09-11T01:47:25.388Z,15.30
2018-09-11T01:49:53.956Z,15.30
2018-09-11T01:52:22.336Z,15.30
2018-09-11T01:54:50.771Z,15.30
2018-09-11T01:57:19.152Z,15.30
2018-09-11T01:59:47.584Z,15.30
2018-09-11T02:02:15.980Z,15.30
2018-09-11T02:04:44.380Z,15.30
2018-09-11T02:07:12.789Z,15.20
2018-09-11T02:09:41.192Z,15.20
2018-09-11T02:12:09.620Z,15.20
2018-09-11T02:14:38.019Z,15.20
2018-09-11T02:17:06.431Z,15.20
2018-09-11T02:19:34.814Z,15.20
2018-09-11T02:22:03.428Z,15.10
2018-09-11T02:24:31.823Z,15.10
2018-09-11T02:27:00.214Z,15.20
2018-09-11T02:29:28.668Z,15.10
2018-09-11T02:31:57.065Z,15.10
2018-09-11T02:34:25.472Z,15.10
2018-09-11T02:36:53.912Z,15.00
2018-09-11T02:39:22.309Z,15.10
2018-09-11T02:41:50.797Z,15.10
2018-09-11T02:44:19.293Z,15.10
2018-09-11T02:46:47.704Z,15.20
2018-09-11T02:49:16.110Z,15.20
2018-09-11T02:51:44.564Z,15.20
2018-09-11T02:54:12.968Z,15.20
2018-09-11T02:56:41.412Z,15.30
2018-09-11T02:59:09.797Z,15.30
2018-09-11T03:01:38.245Z,15.30
2018-09-11T03:04:06.636Z,15.40
2018-09-11T03:06:35.037Z,15.40
2018-09-11T03:09:03.962Z,15.40
2018-09-11T03:11:32.369Z,15.40
2018-09-11T03:14:00.733Z,15.40
2018-09-11T03:16:29.144Z,15.50
2018-09-11T03:18:57.658Z,15.60
2018-09-11T03:21:25.928Z,15.60
2018-09-11T03:23:54.313Z,15.60
2018-09-11T03:26:22.960Z,15.70
2018-09-11T03:28:51.533Z,15.70
2018-09-11T03:31:19.965Z,15.70
2018-09-11T03:33:49.315Z,15.70
2018-09-11T03:36:17.705Z,15.80
2018-09-11T03:38:46.121Z,15.80
2018-09-11T03:41:14.640Z,15.80
2018-09-11T03:43:43.168Z,15.80
2018-09-11T03:46:11.594Z,15.80
2018-09-11T03:48:39.997Z,15.90
2018-09-11T03:51:08.381Z,15.90
2018-09-11T03:53:36.800Z,16.00
2018-09-11T03:56:05.209Z,16.00
2018-09-11T03:58:33.649Z,16.00
2018-09-11T04:01:02.024Z,16.00
2018-09-11T04:03:30.412Z,16.10
2018-09-11T04:05:58.779Z,16.20
2018-09-11T04:08:27.164Z,16.10
2018-09-11T04:10:55.551Z,16.10
2018-09-11T04:13:23.951Z,16.20
2018-09-11T04:15:52.552Z,16.20
2018-09-11T04:18:20.965Z,16.20
2018-09-11T04:20:49.422Z,16.20
2018-09-11T04:23:17.828Z,16.20
2018-09-11T04:25:46.313Z,16.20
2018-09-11T04:28:14.717Z,16.20
2018-09-11T04:30:43.145Z,16.20
2018-09-11T04:33:11.530Z,16.10
2018-09-11T04:35:39.925Z,16.10
2018-09-11T04:38:08.315Z,16.10
2018-09-11T04:40:36.715Z,16.10
2018-09-11T04:43:05.238Z,16.00
2018-09-11T04:45:33.552Z,16.00
2018-09-11T04:48:01.932Z,16.00
2018-09-11T04:50:30.394Z,16.00
2018-09-11T04:52:58.888Z,16.00
2018-09-11T04:55:27.388Z,16.00
2018-09-11T04:57:55.949Z,15.90
2018-09-11T05:00:27.602Z,15.90
2018-09-11T05:02:56.077Z,15.90
2018-09-11T05:05:24.749Z,15.90
2018-09-11T05:07:53.199Z,15.90
2018-09-11T05:10:21.936Z,15.90
2018-09-11T05:12:50.658Z,15.90
2018-09-11T05:15:19.087Z,15.90
2018-09-11T05:17:47.552Z,16.00
2018-09-11T05:20:15.955Z,15.90
2018-09-11T05:22:44.333Z,15.90
2018-09-11T05:25:12.724Z,15.90
2018-09-11T05:27:41.137Z,15.80
2018-09-11T05:30:09.569Z,15.90
2018-09-11T05:32:37.992Z,15.80
2018-09-11T05:35:06.408Z,15.80
2018-09-11T05:37:34.957Z,15.80
2018-09-11T05:40:03.655Z,15.80
2018-09-11T05:42:32.065Z,15.70
2018-09-11T05:45:00.608Z,15.70
2018-09-11T05:47:28.988Z,15.70
2018-09-11T05:49:57.382Z,15.70
2018-09-11T05:52:25.810Z,15.70
2018-09-11T05:54:54.256Z,15.70
2018-09-11T05:57:22.665Z,15.70
2018-09-11T05:59:51.697Z,15.70
2018-09-11T06:02:20.577Z,15.80
2018-09-11T06:04:49.037Z,15.70
2018-09-11T06:07:17.435Z,15.80
2018-09-11T06:09:45.839Z,15.80
2018-09-11T06:12:14.248Z,15.80
2018-09-11T06:14:42.748Z,15.90
2018-09-11T06:17:11.144Z,15.90
2018-09-11T06:19:39.593Z,16.00
2018-09-11T06:22:08.102Z,16.10
2018-09-11T06:24:36.518Z,16.10
2018-09-11T06:27:05.172Z,16.20
2018-09-11T06:29:33.584Z,16.20
2018-09-11T06:32:01.999Z,16.20
2018-09-11T06:34:30.412Z,16.30
2018-09-11T06:36:58.815Z,16.40
2018-09-11T06:39:27.229Z,16.50
2018-09-11T06:41:55.600Z,16.60
2018-09-11T06:44:23.993Z,16.70
2018-09-11T06:46:52.401Z,16.70
2018-09-11T06:49:20.778Z,16.80
2018-09-11T06:51:49.168Z,16.90
2018-09-11T06:54:17.576Z,16.90
2018-09-11T06:56:45.960Z,16.90
2018-09-11T06:59:14.352Z,16.90
2018-09-11T07:01:42.770Z,16.90
2018-09-11T07:04:11.163Z,16.90
2018-09-11T07:06:39.560Z,17.00
2018-09-11T07:09:09.861Z,17.10
2018-09-11T07:11:38.284Z,17.10
2018-09-11T07:14:06.940Z,17.20
2018-09-11T07:16:35.418Z,17.20
2018-09-11T07:19:03.825Z,17.10
2018-09-11T07:21:32.221Z,17.10
2018-09-11T07:24:00.608Z,17.30
2018-09-11T07:26:29.032Z,17.40
2018-09-11T07:28:57.413Z,17.40
2018-09-11T07:31:25.887Z,17.60
2018-09-11T07:33:54.244Z,17.80
2018-09-11T07:36:22.679Z,18.00
2018-09-11T07:38:51.036Z,18.00
2018-09-11T07:41:19.468Z,18.10
2018-09-11T07:43:47.894Z,18.00
2018-09-11T07:46:16.356Z,18.10
2018-09-11T07:48:44.778Z,18.30
2018-09-11T07:51:13.180Z,18.30
2018-09-11T07:53:41.545Z,18.50
2018-09-11T07:56:09.976Z,18.60
2018-09-11T07:58:38.364Z,18.50
2018-09-11T08:01:06.800Z,18.50
2018-09-11T08:03:35.176Z,18.50
2018-09-11T08:06:03.585Z,18.60
2018-09-11T08:08:32.423Z,18.90
2018-09-11T08:11:00.829Z,18.90
2018-09-11T08:13:29.220Z,18.90
2018-09-11T08:15:57.672Z,19.10
2018-09-11T08:18:26.050Z,19.00
2018-09-11T08:20:54.628Z,19.10
2018-09-11T08:23:23.024Z,19.20
2018-09-11T08:25:51.412Z,19.30
2018-09-11T08:28:19.849Z,19.30
2018-09-11T08:30:48.215Z,19.50
2018-09-11T08:33:16.618Z,19.60
2018-09-11T08:35:45.108Z,19.80
2018-09-11T08:38:13.513Z,19.70
2018-09-11T08:40:41.896Z,19.80
2018-09-11T08:43:10.297Z,19.90
2018-09-11T08:45:38.931Z,20.10
2018-09-11T08:48:07.323Z,20.40
2018-09-11T08:50:35.712Z,20.40
2018-09-11T08:53:04.257Z,20.40
2018-09-11T08:55:32.621Z,20.50
2018-09-11T08:58:01.060Z,20.60
2018-09-11T09:00:29.456Z,20.50
2018-09-11T09:02:57.868Z,20.60
2018-09-11T09:05:26.257Z,20.70
2018-09-11T09:07:54.668Z,20.70
2018-09-11T09:10:23.345Z,20.90
2018-09-11T09:12:51.873Z,20.80
2018-09-11T09:15:20.273Z,21.00
2018-09-11T09:17:48.680Z,21.00
2018-09-11T09:20:17.077Z,21.30
2018-09-11T09:22:45.528Z,21.20
2018-09-11T09:25:13.929Z,21.30
2018-09-11T09:27:42.321Z,21.50
2018-09-11T09:30:10.726Z,21.50
2018-09-11T09:32:39.101Z,21.70
2018-09-11T09:35:07.820Z,21.70
2018-09-11T09:37:36.208Z,21.60
2018-09-11T09:40:04.732Z,21.80
2018-09-11T09:42:33.136Z,21.60
2018-09-11T09:45:01.555Z,21.80
2018-09-11T09:47:29.951Z,22.20
2018-09-11T09:49:58.348Z,22.50
2018-09-11T09:52:26.760Z,22.50
2018-09-11T09:54:55.263Z,22.40
2018-09-11T09:57:23.674Z,22.40
2018-09-11T09:59:52.073Z,22.60
2018-09-11T10:02:23.157Z,22.90
2018-09-11T10:04:52.194Z,23.60
2018-09-11T10:07:21.231Z,24.80
2018-09-11T10:09:49.837Z,25.80
2018-09-11T10:12:18.261Z,25.50
2018-09-11T10:14:46.692Z,24.80
2018-09-11T10:17:15.091Z,25.20
2018-09-11T10:19:43.517Z,25.80
2018-09-11T10:22:11.912Z,25.90
2018-09-11T10:24:40.309Z,25.90
2018-09-11T10:27:09.152Z,25.80
2018-09-11T10:29:37.548Z,26.40
2018-09-11T10:32:06.164Z,26.00
2018-09-11T10:34:34.577Z,26.10
2018-09-11T10:37:02.992Z,25.60
2018-09-11T10:39:31.468Z,25.00
2018-09-11T10:41:59.800Z,25.50
2018-09-11T10:44:28.188Z,26.80
2018-09-11T10:46:56.596Z,27.00
2018-09-11T10:49:25.039Z,27.50
2018-09-11T10:51:53.454Z,27.00
2018-09-11T10:54:21.845Z,26.40
2018-09-11T10:56:50.248Z,25.80
2018-09-11T10:59:18.652Z,26.50
2018-09-11T11:01:47.139Z,26.70
2018-09-11T11:04:15.563Z,26.60
2018-09-11T11:06:43.965Z,26.60
2018-09-11T11:09:12.394Z,26.40
2018-09-11T11:11:40.803Z,26.20
2018-09-11T11:14:09.719Z,26.20
2018-09-11T11:16:38.136Z,26.90
2018-09-11T11:19:06.657Z,27.10
2018-09-11T11:21:35.165Z,27.90
2018-09-11T11:24:03.586Z,28.30
2018-09-11T11:26:31.962Z,28.50
2018-09-11T11:29:00.389Z,28.10
2018-09-11T11:31:28.796Z,28.10
2018-09-11T11:33:57.328Z,27.80
2018-09-11T11:36:25.945Z,27.50
2018-09-11T11:38:54.205Z,27.10
2018-09-11T11:41:22.585Z,28.10
2018-09-11T11:43:51.016Z,28.70
2018-09-11T11:46:19.410Z,28.90
2018-09-11T11:48:47.831Z,28.30
2018-09-11T11:51:16.975Z,28.10
2018-09-11T11:53:45.500Z,28.10
2018-09-11T11:56:13.905Z,27.40
2018-09-11T11:58:42.333Z,27.10
2018-09-11T12:01:10.796Z,26.90
2018-09-11T12:03:39.333Z,26.70
2018-09-11T12:06:07.749Z,27.50
2018-09-11T12:08:36.165Z,27.70
2018-09-11T12:11:04.744Z,27.70
2018-09-11T12:13:33.176Z,27.50
2018-09-11T12:16:01.584Z,27.30
2018-09-11T12:18:30.092Z,27.90
2018-09-11T12:20:58.517Z,28.40
2018-09-11T12:23:27.053Z,28.40
2018-09-11T12:25:55.542Z,28.50
2018-09-11T12:28:23.938Z,28.10
2018-09-11T12:30:53.015Z,27.60
2018-09-11T12:33:21.477Z,28.40
2018-09-11T12:35:49.910Z,29.20
2018-09-11T12:38:18.312Z,29.50
2018-09-11T12:40:46.772Z,29.30
2018-09-11T12:43:15.165Z,27.90
2018-09-11T12:45:43.934Z,27.80
2018-09-11T12:48:12.897Z,28.40
2018-09-11T12:50:40.755Z,28.40
2018-09-11T12:53:09.179Z,28.60
2018-09-11T12:55:37.589Z,27.80
2018-09-11T12:58:06.005Z,27.50
2018-09-11T13:03:09.692Z,28.00
2018-09-11T13:05:38.103Z,28.60
2018-09-11T13:08:06.521Z,28.50
2018-09-11T13:10:34.918Z,29.00
2018-09-11T13:13:03.325Z,29.40
2018-09-11T13:15:31.812Z,28.60
2018-09-11T13:18:00.215Z,28.50
2018-09-11T13:20:28.646Z,28.40
2018-09-11T13:22:57.060Z,28.50
2018-09-11T13:25:25.508Z,28.60
2018-09-11T13:27:53.865Z,28.60
2018-09-11T13:30:22.296Z,28.50
2018-09-11T13:32:50.708Z,28.50
2018-09-11T13:35:19.124Z,28.50
2018-09-11T13:37:47.560Z,28.40
2018-09-11T13:40:15.973Z,28.10
2018-09-11T13:42:44.388Z,27.70
2018-09-11T13:45:12.772Z,27.80
2018-09-11T13:47:41.440Z,27.70
2018-09-11T13:50:09.892Z,27.60
2018-09-11T13:52:38.321Z,27.70
2018-09-11T13:55:06.781Z,27.20
2018-09-11T13:57:35.200Z,27.00
2018-09-11T14:00:03.652Z,26.80
2018-09-11T14:02:32.104Z,26.80
2018-09-11T14:05:00.497Z,27.00
2018-09-11T14:07:28.971Z,27.30
2018-09-11T14:09:57.368Z,27.50
2018-09-11T14:12:25.773Z,27.20
2018-09-11T14:14:54.163Z,27.10
2018-09-11T14:17:22.663Z,27.00
2018-09-11T14:19:51.072Z,27.00
2018-09-11T14:22:19.857Z,27.30
2018-09-11T14:24:48.266Z,27.10
2018-09-11T14:27:16.792Z,27.40
2018-09-11T14:29:45.193Z,27.20
2018-09-11T14:32:13.639Z,27.20
2018-09-11T14:34:42.135Z,27.20
2018-09-11T14:37:10.545Z,27.10
2018-09-11T14:39:38.957Z,27.30
2018-09-11T14:42:07.468Z,27.40
2018-09-11T14:44:35.910Z,27.40
2018-09-11T14:47:04.828Z,27.30
2018-09-11T14:49:33.321Z,27.10
2018-09-11T14:52:01.781Z,27.00
2018-09-11T14:54:30.197Z,27.10
2018-09-11T14:56:58.685Z,27.20
2018-09-11T14:59:27.117Z,27.30
2018-09-11T15:01:55.567Z,27.30
2018-09-11T15:04:23.962Z,27.20
2018-09-11T15:06:52.566Z,27.20
2018-09-11T15:09:21.026Z,27.20
2018-09-11T15:11:49.453Z,27.40
2018-09-11T15:14:17.936Z,27.50
2018-09-11T15:16:46.333Z,27.40
2018-09-11T15:19:14.768Z,27.00
2018-09-11T15:21:43.193Z,26.80
2018-09-11T15:24:11.634Z,26.90
2018-09-11T15:26:40.214Z,27.00
2018-09-11T15:29:08.742Z,27.00
2018-09-11T15:31:37.164Z,26.80
2018-09-11T15:34:05.664Z,26.80
2018-09-11T15:36:34.098Z,26.80
2018-09-11T15:39:02.490Z,26.80
2018-09-11T15:41:30.928Z,26.90
2018-09-11T15:43:59.495Z,26.90
2018-09-11T15:46:27.850Z,26.90
2018-09-11T15:48:56.253Z,26.60
2018-09-11T15:51:24.708Z,26.60
2018-09-11T15:53:53.137Z,26.70
2018-09-11T15:56:21.582Z,26.70
2018-09-11T15:58:49.982Z,26.50
2018-09-11T16:01:18.525Z,26.50
2018-09-11T16:03:47.061Z,26.50
2018-09-11T16:06:15.534Z,26.60
2018-09-11T16:08:44.034Z,26.50
2018-09-11T16:11:12.464Z,26.50
2018-09-11T16:13:40.921Z,26.50
2018-09-11T16:16:09.348Z,26.50
2018-09-11T16:18:37.780Z,26.50
2018-09-11T16:21:06.363Z,26.50
2018-09-11T16:23:34.845Z,26.50
2018-09-11T16:26:03.307Z,26.50
2018-09-11T16:28:31.776Z,26.60
2018-09-11T16:31:00.405Z,26.40
2018-09-11T16:33:28.974Z,26.40
2018-09-11T16:35:57.393Z,26.30
2018-09-11T16:38:25.809Z,26.30
2018-09-11T16:40:54.374Z,26.40
2018-09-11T16:43:22.933Z,26.30
2018-09-11T16:45:51.663Z,26.20
2018-09-11T16:48:20.087Z,26.10
2018-09-11T16:50:48.500Z,26.10
2018-09-11T16:53:16.910Z,26.10
2018-09-11T16:55:45.337Z,26.00
2018-09-11T16:58:13.753Z,26.00
2018-09-11T17:00:42.186Z,26.00
2018-09-11T17:03:10.608Z,25.90
2018-09-11T17:05:39.058Z,25.80
2018-09-11T17:08:07.618Z,25.80
2018-09-11T17:10:36.036Z,25.70
2018-09-11T17:13:04.502Z,25.70
2018-09-11T17:15:32.988Z,25.60
2018-09-11T17:18:01.348Z,25.60
2018-09-11T17:20:29.785Z,25.50
2018-09-11T17:22:58.236Z,25.40
2018-09-11T17:25:26.762Z,25.30
2018-09-11T17:27:55.240Z,25.30
2018-09-11T17:30:23.690Z,25.20
2018-09-11T17:32:52.097Z,25.20
2018-09-11T17:35:20.554Z,25.10
2018-09-11T17:37:48.961Z,25.00
2018-09-11T17:40:17.426Z,25.00
2018-09-11T17:42:45.831Z,24.90
2018-09-11T17:45:14.253Z,24.80
2018-09-11T17:47:42.777Z,24.60
2018-09-11T17:50:11.385Z,24.60
2018-09-11T17:52:39.799Z,24.40
2018-09-11T17:55:08.242Z,24.30
2018-09-11T17:57:36.880Z,24.20
2018-09-11T18:00:05.423Z,24.10
2018-09-11T18:02:34.887Z,24.00
2018-09-11T18:05:04.401Z,23.80
2018-09-11T18:07:33.256Z,23.60
2018-09-11T18:10:03.212Z,23.50
2018-09-11T18:12:31.629Z,23.30
2018-09-11T18:15:01.358Z,23.10
2018-09-11T18:17:29.837Z,22.90
2018-09-11T18:19:58.313Z,22.80
2018-09-11T18:22:26.722Z,22.60
2018-09-11T18:24:55.565Z,22.60
2018-09-11T18:27:24.040Z,22.40
2018-09-11T18:29:52.486Z,22.20
2018-09-11T18:32:20.911Z,22.00
2018-09-11T18:34:49.521Z,21.80
2018-09-11T18:37:17.993Z,21.70
2018-09-11T18:39:46.341Z,21.60
2018-09-11T18:42:14.778Z,21.80
2018-09-11T18:44:43.258Z,21.80
2018-09-11T18:47:11.737Z,21.80
2018-09-11T18:49:40.976Z,22.00
2018-09-11T18:52:09.441Z,22.10
2018-09-11T18:54:37.857Z,22.10
2018-09-11T18:57:06.305Z,22.10
2018-09-11T18:59:34.813Z,22.00
2018-09-11T19:02:04.117Z,22.00
2018-09-11T19:04:32.566Z,21.80
2018-09-11T19:07:01.146Z,21.60
2018-09-11T19:09:29.724Z,21.40
2018-09-11T19:11:58.138Z,21.40
2018-09-11T19:14:26.565Z,21.30
2018-09-11T19:16:55.011Z,21.20
2018-09-11T19:19:23.416Z,21.10
2018-09-11T19:21:51.841Z,21.00
2018-09-11T19:24:20.370Z,20.90
2018-09-11T19:26:50.085Z,20.80
2018-09-11T19:29:18.424Z,20.90
2018-09-11T19:31:47.646Z,20.80
2018-09-11T19:34:16.178Z,20.70
2018-09-11T19:36:44.544Z,20.60
2018-09-11T19:39:13.024Z,20.50
2018-09-11T19:41:41.442Z,20.40
2018-09-11T19:44:09.857Z,20.40
2018-09-11T19:46:39.929Z,20.30
2018-09-11T19:49:08.472Z,20.20
2018-09-11T19:51:36.933Z,20.10
2018-09-11T19:54:05.523Z,20.10
2018-09-11T19:56:33.952Z,20.10
2018-09-11T19:59:02.402Z,20.10
2018-09-11T20:01:30.825Z,20.10
2018-09-11T20:03:59.285Z,20.20
2018-09-11T20:06:27.681Z,20.40
2018-09-11T20:08:56.250Z,20.50
2018-09-11T20:11:24.664Z,20.50
2018-09-11T20:13:53.186Z,20.40
2018-09-11T20:16:21.600Z,20.20
2018-09-11T20:18:50.088Z,20.10
2018-09-11T20:21:18.508Z,20.10
2018-09-11T20:23:46.896Z,20.20
2018-09-11T20:26:15.332Z,20.20
2018-09-11T20:28:43.752Z,20.00
2018-09-11T20:31:12.136Z,19.90
2018-09-11T20:33:40.569Z,19.90
2018-09-11T20:36:08.998Z,19.80
2018-09-11T20:38:38.037Z,19.70
2018-09-11T20:41:06.602Z,19.60
2018-09-11T20:43:35.018Z,19.50
2018-09-11T20:46:03.445Z,19.50
2018-09-11T20:48:32.532Z,19.40
2018-09-11T20:51:00.978Z,19.40
2018-09-11T20:53:29.488Z,19.30
2018-09-11T20:55:58.108Z,19.30
2018-09-11T20:58:26.549Z,19.30
2018-09-11T21:00:55.039Z,19.30
2018-09-11T21:03:23.418Z,19.20
2018-09-11T21:05:51.832Z,19.00
2018-09-11T21:08:20.306Z,18.90
2018-09-11T21:10:48.753Z,18.80
2018-09-11T21:13:17.164Z,18.80
2018-09-11T21:18:20.062Z,18.90
2018-09-11T21:20:49.043Z,19.00
2018-09-11T21:23:17.480Z,19.20
2018-09-11T21:25:45.971Z,19.40
2018-09-11T21:28:14.345Z,19.40
2018-09-11T21:30:42.786Z,19.40
2018-09-11T21:33:11.196Z,19.30
2018-09-11T21:35:39.620Z,19.40
2018-09-11T21:38:08.130Z,19.40
2018-09-11T21:40:36.676Z,19.40
2018-09-11T21:43:05.854Z,19.40
2018-09-11T21:45:34.248Z,19.30
2018-09-11T21:48:02.656Z,19.20
2018-09-11T21:50:31.080Z,19.30
2018-09-11T21:52:59.494Z,19.20
2018-09-11T21:55:27.887Z,19.30
2018-09-11T21:57:57.824Z,19.30
2018-09-11T22:00:26.285Z,19.30
2018-09-11T22:02:54.699Z,19.30
2018-09-11T22:05:23.137Z,19.20
2018-09-11T22:07:51.548Z,19.20
2018-09-11T22:10:20.061Z,19.10
2018-09-11T22:12:48.472Z,19.00
2018-09-11T22:15:16.895Z,18.90
2018-09-11T22:17:45.285Z,18.90
2018-09-11T22:20:13.676Z,18.80
2018-09-11T22:22:42.078Z,18.90
2018-09-11T22:25:10.472Z,19.00
2018-09-11T22:27:38.928Z,19.00
2018-09-11T22:30:07.433Z,19.00
2018-09-11T22:32:35.920Z,19.20
2018-09-11T22:35:04.331Z,19.10
2018-09-11T22:37:32.738Z,19.20
2018-09-11T22:40:01.154Z,19.20
2018-09-11T22:42:29.544Z,19.20
2018-09-11T22:44:57.980Z,19.20
2018-09-11T22:47:26.356Z,19.10
2018-09-11T22:49:54.795Z,19.00
2018-09-11T22:52:23.192Z,19.00
2018-09-11T22:54:51.620Z,19.00
2018-09-11T22:57:20.029Z,18.90
2018-09-11T22:59:48.430Z,19.00
2018-09-11T23:02:17.421Z,19.00
2018-09-11T23:04:45.828Z,19.00
2018-09-11T23:07:14.201Z,19.10
2018-09-11T23:09:42.604Z,19.00
2018-09-11T23:12:11.001Z,18.90
2018-09-11T23:14:39.393Z,19.00
2018-09-11T23:17:07.796Z,19.00
2018-09-11T23:19:36.201Z,19.00
2018-09-11T23:22:04.630Z,19.10
2018-09-11T23:24:33.036Z,19.10
2018-09-11T23:27:01.472Z,19.20
2018-09-11T23:29:29.944Z,19.20
2018-09-11T23:31:58.414Z,19.20
2018-09-11T23:34:26.849Z,19.20
2018-09-11T23:36:55.237Z,19.10
2018-09-11T23:39:23.648Z,19.10
2018-09-11T23:41:52.061Z,19.10
2018-09-11T23:44:20.497Z,19.00
2018-09-11T23:46:48.911Z,19.00
2018-09-11T23:49:17.297Z,19.00
2018-09-11T23:51:45.726Z,18.90
2018-09-11T23:54:14.100Z,18.90
2018-09-11T23:56:43.053Z,18.90
2018-09-11T23:59:11.474Z,18.90
